EYPA/PLQ METAR and TAF weather

Enter ICAO airport designator
Station Type Date Time Source
EYPA METAR 2022/01/26 14:20 UTC NOAA

EYPA 261420Z 24005KT 180V290 9999 OVC003 04/03 Q1013 REDZ


Station Type Date Time Source
EYPA Decoded METAR 2022/01/26 14:20 UTC NOAA

Palanga Intl., Lithuania (EYPA) 55-55-12N 021-03E
Jan 26, 2022 - 09:20 AM EST / 2022.01.26 1420 UTC
Wind: from the WSW (240 degrees) at 6 MPH (5 KT) (direction variable):0
Visibility: greater than 7 mile(s):0
Sky conditions: overcast
Temperature: 39 F (4 C)
Dew Point: 37 F (3 C)
Relative Humidity: 93%
Pressure (altimeter): 29.91 in. Hg (1013 hPa)
ob: EYPA 261420Z 24005KT 180V290 9999 OVC003 04/03 Q1013 REDZ
cycle: 14

Station Type Date Time Source
EYPA TAF 2022/01/26 13:41 UTC NOAA

TAF
AMD EYPA 261338Z 2613/2712 24010KT 5000 RASN BR OVC005
TEMPO 2613/2616 3000 OVC002
BECMG 2616/2618 OVC010
BECMG 2618/2620 9000 NSW BKN015
FM270500 OVC010
TEMPO 2707/2712 3000 RA BR BKN005

Example: see airport list